sensor_id;sensor_type;location;lat;lon;timestamp;pressure;altitude;pressure_sealevel;temperature;humidity
2785;BME280;57944;48.722;9.316;2022-09-09T00:00:55;97742.28;;;11.83;100.00
2785;BME280;57944;48.722;9.316;2022-09-09T00:03:40;97749.16;;;11.83;100.00
2785;BME280;57944;48.722;9.316;2022-09-09T00:06:21;97746.66;;;11.76;100.00
2785;BME280;57944;48.722;9.316;2022-09-09T00:09:04;97740.97;;;11.74;100.00
2785;BME280;57944;48.722;9.316;2022-09-09T00:11:43;97737.59;;;11.80;100.00
2785;BME280;57944;48.722;9.316;2022-09-09T00:14:23;97739.16;;;11.81;100.00
2785;BME280;57944;48.722;9.316;2022-09-09T00:17:02;97727.38;;;11.80;100.00
2785;BME280;57944;48.722;9.316;2022-09-09T00:19:43;97737.78;;;11.85;100.00
2785;BME280;57944;48.722;9.316;2022-09-09T00:22:20;97734.63;;;11.90;100.00
2785;BME280;57944;48.722;9.316;2022-09-09T00:24:53;97729.94;;;11.80;100.00
2785;BME280;57944;48.722;9.316;2022-09-09T00:27:29;97729.19;;;11.73;100.00
2785;BME280;57944;48.722;9.316;2022-09-09T00:30:16;97721.28;;;11.81;100.00
2785;BME280;57944;48.722;9.316;2022-09-09T00:32:54;97716.59;;;11.78;100.00
2785;BME280;57944;48.722;9.316;2022-09-09T00:35:31;97723.63;;;11.83;100.00
2785;BME280;57944;48.722;9.316;2022-09-09T00:38:10;97722.81;;;11.96;100.00
2785;BME280;57944;48.722;9.316;2022-09-09T00:40:50;97722.72;;;12.09;100.00
2785;BME280;57944;48.722;9.316;2022-09-09T00:43:29;97722.59;;;12.22;100.00
2785;BME280;57944;48.722;9.316;2022-09-09T00:46:26;97721.75;;;12.28;100.00
2785;BME280;57944;48.722;9.316;2022-09-09T00:49:15;97720.53;;;12.38;100.00
2785;BME280;57944;48.722;9.316;2022-09-09T00:52:08;97725.53;;;12.51;100.00
2785;BME280;57944;48.722;9.316;2022-09-09T00:54:53;97733.47;;;12.61;100.00
2785;BME280;57944;48.722;9.316;2022-09-09T00:57:29;97735.19;;;12.67;100.00
2785;BME280;57944;48.722;9.316;2022-09-09T01:00:18;97738.06;;;12.78;100.00
2785;BME280;57944;48.722;9.316;2022-09-09T01:03:03;97738.22;;;12.83;100.00
2785;BME280;57944;48.722;9.316;2022-09-09T01:05:46;97739.56;;;12.85;100.00
2785;BME280;57944;48.722;9.316;2022-09-09T01:08:42;97738.50;;;12.93;100.00
2785;BME280;57944;48.722;9.316;2022-09-09T01:11:22;97736.38;;;12.90;100.00
2785;BME280;57944;48.722;9.316;2022-09-09T01:14:09;97741.34;;;12.85;100.00
2785;BME280;57944;48.722;9.316;2022-09-09T01:16:43;97729.97;;;12.81;100.00
2785;BME280;57944;48.722;9.316;2022-09-09T01:19:24;97733.56;;;12.73;100.00
2785;BME280;57944;48.722;9.316;2022-09-09T01:22:10;97733.63;;;12.66;100.00
2785;BME280;57944;48.722;9.316;2022-09-09T01:25:28;97727.75;;;12.66;100.00
2785;BME280;57944;48.722;9.316;2022-09-09T01:28:15;97741.16;;;12.61;100.00
2785;BME280;57944;48.722;9.316;2022-09-09T01:30:47;97742.84;;;12.49;100.00
2785;BME280;57944;48.722;9.316;2022-09-09T01:33:20;97739.38;;;12.37;100.00
2785;BME280;57944;48.722;9.316;2022-09-09T01:35:56;97746.78;;;12.45;100.00
2785;BME280;57944;48.722;9.316;2022-09-09T01:38:34;97748.81;;;12.43;100.00
2785;BME280;57944;48.722;9.316;2022-09-09T01:41:04;97750.41;;;12.37;100.00
2785;BME280;57944;48.722;9.316;2022-09-09T01:43:56;97755.13;;;12.34;100.00
2785;BME280;57944;48.722;9.316;2022-09-09T01:46:29;97747.31;;;12.28;100.00
2785;BME280;57944;48.722;9.316;2022-09-09T01:49:04;97743.78;;;12.29;100.00
2785;BME280;57944;48.722;9.316;2022-09-09T01:51:36;97740.31;;;12.42;100.00
2785;BME280;57944;48.722;9.316;2022-09-09T01:54:11;97736.28;;;12.35;100.00
2785;BME280;57944;48.722;9.316;2022-09-09T01:56:55;97740.06;;;12.25;100.00
2785;BME280;57944;48.722;9.316;2022-09-09T01:59:48;97734.06;;;12.13;100.00
2785;BME280;57944;48.722;9.316;2022-09-09T02:02:30;97733.91;;;12.08;100.00
2785;BME280;57944;48.722;9.316;2022-09-09T02:05:22;97739.69;;;11.97;100.00
2785;BME280;57944;48.722;9.316;2022-09-09T02:08:06;97743.22;;;11.96;100.00
2785;BME280;57944;48.722;9.316;2022-09-09T02:10:56;97740.09;;;11.94;100.00
2785;BME280;57944;48.722;9.316;2022-09-09T02:13:40;97738.53;;;11.93;100.00
2785;BME280;57944;48.722;9.316;2022-09-09T02:16:24;97737.41;;;11.82;100.00
2785;BME280;57944;48.722;9.316;2022-09-09T02:19:02;97740.50;;;11.91;100.00
2785;BME280;57944;48.722;9.316;2022-09-09T02:21:52;97746.41;;;11.84;100.00
2785;BME280;57944;48.722;9.316;2022-09-09T02:24:25;97747.00;;;11.87;100.00
2785;BME280;57944;48.722;9.316;2022-09-09T02:27:10;97745.44;;;11.85;100.00
2785;BME280;57944;48.722;9.316;2022-09-09T02:29:43;97731.56;;;11.68;100.00
2785;BME280;57944;48.722;9.316;2022-09-09T02:32:23;97735.91;;;11.61;100.00
2785;BME280;57944;48.722;9.316;2022-09-09T02:34:58;97741.66;;;11.50;100.00
2785;BME280;57944;48.722;9.316;2022-09-09T02:37:35;97733.28;;;11.43;100.00
2785;BME280;57944;48.722;9.316;2022-09-09T02:40:10;97741.16;;;11.34;100.00
2785;BME280;57944;48.722;9.316;2022-09-09T02:42:48;97739.97;;;11.30;100.00
2785;BME280;57944;48.722;9.316;2022-09-09T02:45:25;97743.16;;;11.19;100.00
2785;BME280;57944;48.722;9.316;2022-09-09T02:48:09;97740.63;;;11.12;100.00
2785;BME280;57944;48.722;9.316;2022-09-09T02:50:54;97731.66;;;11.03;100.00
2785;BME280;57944;48.722;9.316;2022-09-09T02:53:39;97742.84;;;10.95;100.00
2785;BME280;57944;48.722;9.316;2022-09-09T02:56:17;97747.94;;;10.95;100.00
2785;BME280;57944;48.722;9.316;2022-09-09T02:58:49;97755.38;;;10.97;100.00
2785;BME280;57944;48.722;9.316;2022-09-09T03:01:21;97754.97;;;11.00;100.00
2785;BME280;57944;48.722;9.316;2022-09-09T03:03:54;97754.00;;;10.94;100.00
2785;BME280;57944;48.722;9.316;2022-09-09T03:06:25;97758.53;;;10.92;100.00
2785;BME280;57944;48.722;9.316;2022-09-09T03:09:03;97750.69;;;10.87;100.00
2785;BME280;57944;48.722;9.316;2022-09-09T03:11:35;97742.25;;;10.93;100.00
2785;BME280;57944;48.722;9.316;2022-09-09T03:14:06;97745.19;;;10.97;100.00
2785;BME280;57944;48.722;9.316;2022-09-09T03:16:39;97742.41;;;11.12;100.00
2785;BME280;57944;48.722;9.316;2022-09-09T03:19:13;97742.75;;;11.29;100.00
2785;BME280;57944;48.722;9.316;2022-09-09T03:21:43;97740.94;;;11.43;100.00
2785;BME280;57944;48.722;9.316;2022-09-09T03:24:13;97749.28;;;11.63;100.00
2785;BME280;57944;48.722;9.316;2022-09-09T03:26:43;97751.63;;;11.65;100.00
2785;BME280;57944;48.722;9.316;2022-09-09T03:29:17;97748.44;;;11.69;100.00
2785;BME280;57944;48.722;9.316;2022-09-09T03:31:47;97752.78;;;11.69;100.00
2785;BME280;57944;48.722;9.316;2022-09-09T03:34:20;97757.69;;;11.70;100.00
2785;BME280;57944;48.722;9.316;2022-09-09T03:36:50;97759.31;;;11.58;100.00
2785;BME280;57944;48.722;9.316;2022-09-09T03:39:20;97761.03;;;11.64;100.00
2785;BME280;57944;48.722;9.316;2022-09-09T03:41:50;97757.75;;;11.57;100.00
2785;BME280;57944;48.722;9.316;2022-09-09T03:44:21;97762.63;;;11.58;100.00
2785;BME280;57944;48.722;9.316;2022-09-09T03:46:51;97755.59;;;11.54;100.00
2785;BME280;57944;48.722;9.316;2022-09-09T03:49:23;97751.69;;;11.51;100.00
2785;BME280;57944;48.722;9.316;2022-09-09T03:51:56;97752.84;;;11.55;100.00
2785;BME280;57944;48.722;9.316;2022-09-09T03:54:29;97748.13;;;11.59;100.00
2785;BME280;57944;48.722;9.316;2022-09-09T03:56:59;97744.41;;;11.55;100.00
2785;BME280;57944;48.722;9.316;2022-09-09T03:59:29;97752.00;;;11.61;100.00
2785;BME280;57944;48.722;9.316;2022-09-09T04:01:59;97750.69;;;11.59;100.00
2785;BME280;57944;48.722;9.316;2022-09-09T04:04:32;97735.91;;;11.61;100.00
2785;BME280;57944;48.722;9.316;2022-09-09T04:07:02;97736.63;;;11.75;100.00
2785;BME280;57944;48.722;9.316;2022-09-09T04:09:34;97732.47;;;11.80;100.00
2785;BME280;57944;48.722;9.316;2022-09-09T04:12:04;97743.09;;;11.77;100.00
2785;BME280;57944;48.722;9.316;2022-09-09T04:14:35;97750.41;;;11.67;100.00
2785;BME280;57944;48.722;9.316;2022-09-09T04:17:06;97758.34;;;11.59;100.00
2785;BME280;57944;48.722;9.316;2022-09-09T04:19:39;97760.72;;;11.54;100.00
2785;BME280;57944;48.722;9.316;2022-09-09T04:22:10;97754.25;;;11.45;100.00
2785;BME280;57944;48.722;9.316;2022-09-09T04:24:40;97757.78;;;11.44;100.00
2785;BME280;57944;48.722;9.316;2022-09-09T04:27:15;97754.84;;;11.47;100.00
2785;BME280;57944;48.722;9.316;2022-09-09T04:29:45;97754.66;;;11.48;100.00
2785;BME280;57944;48.722;9.316;2022-09-09T04:32:15;97750.50;;;11.54;100.00
2785;BME280;57944;48.722;9.316;2022-09-09T04:34:48;97752.81;;;11.62;100.00
2785;BME280;57944;48.722;9.316;2022-09-09T04:37:18;97749.44;;;11.68;100.00
2785;BME280;57944;48.722;9.316;2022-09-09T04:39:48;97746.06;;;11.74;100.00
2785;BME280;57944;48.722;9.316;2022-09-09T04:42:18;97745.63;;;11.84;100.00
2785;BME280;57944;48.722;9.316;2022-09-09T04:44:49;97745.63;;;11.91;100.00
2785;BME280;57944;48.722;9.316;2022-09-09T04:47:19;97755.84;;;11.91;100.00
2785;BME280;57944;48.722;9.316;2022-09-09T04:49:51;97756.56;;;11.98;100.00
2785;BME280;57944;48.722;9.316;2022-09-09T04:52:22;97756.94;;;12.01;100.00
2785;BME280;57944;48.722;9.316;2022-09-09T04:54:52;97749.47;;;12.06;100.00
2785;BME280;57944;48.722;9.316;2022-09-09T04:57:22;97752.53;;;12.15;100.00
2785;BME280;57944;48.722;9.316;2022-09-09T04:59:52;97750.94;;;12.21;100.00
2785;BME280;57944;48.722;9.316;2022-09-09T05:02:22;97756.03;;;12.21;100.00
2785;BME280;57944;48.722;9.316;2022-09-09T05:05:00;97757.44;;;12.17;100.00
2785;BME280;57944;48.722;9.316;2022-09-09T05:07:30;97758.47;;;12.09;100.00
2785;BME280;57944;48.722;9.316;2022-09-09T05:10:00;97756.16;;;12.01;100.00
2785;BME280;57944;48.722;9.316;2022-09-09T05:12:32;97766.00;;;11.97;100.00
2785;BME280;57944;48.722;9.316;2022-09-09T05:15:03;97770.75;;;11.94;100.00
2785;BME280;57944;48.722;9.316;2022-09-09T05:17:34;97776.59;;;12.01;100.00
2785;BME280;57944;48.722;9.316;2022-09-09T05:20:08;97777.38;;;12.01;100.00
2785;BME280;57944;48.722;9.316;2022-09-09T05:22:43;97777.16;;;12.03;100.00
2785;BME280;57944;48.722;9.316;2022-09-09T05:25:14;97773.41;;;12.05;100.00
2785;BME280;57944;48.722;9.316;2022-09-09T05:27:44;97770.19;;;12.23;100.00
2785;BME280;57944;48.722;9.316;2022-09-09T05:30:14;97777.03;;;12.48;100.00
2785;BME280;57944;48.722;9.316;2022-09-09T05:32:46;97771.72;;;12.74;100.00
2785;BME280;57944;48.722;9.316;2022-09-09T05:35:19;97771.88;;;12.98;100.00
2785;BME280;57944;48.722;9.316;2022-09-09T05:37:50;97778.03;;;13.15;100.00
2785;BME280;57944;48.722;9.316;2022-09-09T05:40:20;97785.28;;;13.37;100.00
2785;BME280;57944;48.722;9.316;2022-09-09T05:42:51;97781.16;;;13.54;100.00
2785;BME280;57944;48.722;9.316;2022-09-09T05:45:21;97776.78;;;13.73;100.00
2785;BME280;57944;48.722;9.316;2022-09-09T05:47:52;97781.59;;;14.23;100.00
2785;BME280;57944;48.722;9.316;2022-09-09T05:50:25;97789.16;;;14.95;100.00
2785;BME280;57944;48.722;9.316;2022-09-09T05:52:57;97796.03;;;15.82;100.00
2785;BME280;57944;48.722;9.316;2022-09-09T05:55:28;97800.41;;;16.61;100.00
2785;BME280;57944;48.722;9.316;2022-09-09T05:57:59;97806.59;;;17.38;100.00
2785;BME280;57944;48.722;9.316;2022-09-09T06:00:29;97808.88;;;17.34;100.00
2785;BME280;57944;48.722;9.316;2022-09-09T06:02:59;97803.78;;;17.17;100.00
2785;BME280;57944;48.722;9.316;2022-09-09T06:05:33;97800.47;;;17.00;100.00
2785;BME280;57944;48.722;9.316;2022-09-09T06:08:03;97796.34;;;16.65;100.00
2785;BME280;57944;48.722;9.316;2022-09-09T06:10:34;97796.03;;;16.45;100.00
2785;BME280;57944;48.722;9.316;2022-09-09T06:13:04;97800.94;;;16.29;100.00
2785;BME280;57944;48.722;9.316;2022-09-09T06:15:34;97795.09;;;16.17;100.00
2785;BME280;57944;48.722;9.316;2022-09-09T06:18:04;97801.06;;;16.06;100.00
2785;BME280;57944;48.722;9.316;2022-09-09T06:20:37;97803.41;;;16.07;100.00
2785;BME280;57944;48.722;9.316;2022-09-09T06:23:07;97796.03;;;16.11;100.00
2785;BME280;57944;48.722;9.316;2022-09-09T06:25:37;97796.03;;;16.11;100.00
2785;BME280;57944;48.722;9.316;2022-09-09T06:28:08;97798.81;;;16.26;100.00
2785;BME280;57944;48.722;9.316;2022-09-09T06:30:38;97795.97;;;16.40;100.00
2785;BME280;57944;48.722;9.316;2022-09-09T06:33:08;97799.38;;;16.62;100.00
2785;BME280;57944;48.722;9.316;2022-09-09T06:35:42;97798.16;;;16.82;100.00
2785;BME280;57944;48.722;9.316;2022-09-09T06:38:12;97789.84;;;16.96;100.00
2785;BME280;57944;48.722;9.316;2022-09-09T06:40:42;97790.25;;;17.05;100.00
2785;BME280;57944;48.722;9.316;2022-09-09T06:43:12;97801.28;;;17.23;100.00
2785;BME280;57944;48.722;9.316;2022-09-09T06:45:54;97799.41;;;17.40;100.00
2785;BME280;57944;48.722;9.316;2022-09-09T06:48:25;97798.50;;;17.51;100.00
2785;BME280;57944;48.722;9.316;2022-09-09T06:51:08;97805.59;;;17.61;100.00
2785;BME280;57944;48.722;9.316;2022-09-09T06:53:41;97801.44;;;17.82;100.00
2785;BME280;57944;48.722;9.316;2022-09-09T06:56:21;97808.31;;;17.98;100.00
2785;BME280;57944;48.722;9.316;2022-09-09T06:58:54;97814.50;;;17.53;100.00
2785;BME280;57944;48.722;9.316;2022-09-09T07:01:31;97811.66;;;17.99;100.00
2785;BME280;57944;48.722;9.316;2022-09-09T07:04:05;97817.53;;;18.53;100.00
2785;BME280;57944;48.722;9.316;2022-09-09T07:06:42;97801.13;;;18.70;100.00
2785;BME280;57944;48.722;9.316;2022-09-09T07:09:20;97810.06;;;18.89;100.00
2785;BME280;57944;48.722;9.316;2022-09-09T07:11:53;97814.16;;;19.38;100.00
2785;BME280;57944;48.722;9.316;2022-09-09T07:14:26;97812.56;;;20.10;100.00
2785;BME280;57944;48.722;9.316;2022-09-09T07:17:00;97800.63;;;20.81;90.74
2785;BME280;57944;48.722;9.316;2022-09-09T07:19:35;97804.38;;;21.34;85.92
2785;BME280;57944;48.722;9.316;2022-09-09T07:22:08;97809.38;;;22.20;78.82
2785;BME280;57944;48.722;9.316;2022-09-09T07:24:39;97807.50;;;22.60;74.45
2785;BME280;57944;48.722;9.316;2022-09-09T07:27:09;97809.50;;;22.68;71.33
2785;BME280;57944;48.722;9.316;2022-09-09T07:29:39;97814.25;;;22.61;71.67
2785;BME280;57944;48.722;9.316;2022-09-09T07:32:10;97812.16;;;22.28;74.54
2785;BME280;57944;48.722;9.316;2022-09-09T07:34:40;97813.31;;;22.12;74.99
2785;BME280;57944;48.722;9.316;2022-09-09T07:37:13;97806.16;;;21.49;79.22
2785;BME280;57944;48.722;9.316;2022-09-09T07:39:45;97802.69;;;21.64;80.76
2785;BME280;57944;48.722;9.316;2022-09-09T07:42:17;97805.63;;;21.97;77.17
2785;BME280;57944;48.722;9.316;2022-09-09T07:44:47;97811.19;;;22.14;76.32
2785;BME280;57944;48.722;9.316;2022-09-09T07:47:21;97821.03;;;22.22;75.44
2785;BME280;57944;48.722;9.316;2022-09-09T07:49:51;97816.31;;;22.59;73.94
2785;BME280;57944;48.722;9.316;2022-09-09T07:52:30;97807.34;;;23.04;69.46
2785;BME280;57944;48.722;9.316;2022-09-09T07:55:04;97814.59;;;23.26;69.10
2785;BME280;57944;48.722;9.316;2022-09-09T07:57:35;97821.84;;;23.10;69.15
2785;BME280;57944;48.722;9.316;2022-09-09T08:00:07;97832.63;;;23.84;65.52
2785;BME280;57944;48.722;9.316;2022-09-09T08:02:43;97832.91;;;25.41;56.34
2785;BME280;57944;48.722;9.316;2022-09-09T08:05:13;97837.34;;;25.55;54.98
2785;BME280;57944;48.722;9.316;2022-09-09T08:07:48;97836.78;;;26.17;53.17
2785;BME280;57944;48.722;9.316;2022-09-09T08:10:18;97835.63;;;27.16;50.00
2785;BME280;57944;48.722;9.316;2022-09-09T08:12:49;97835.06;;;28.50;46.04
2785;BME280;57944;48.722;9.316;2022-09-09T08:15:39;97835.75;;;28.03;45.97
2785;BME280;57944;48.722;9.316;2022-09-09T08:18:11;97835.00;;;29.14;44.48
2785;BME280;57944;48.722;9.316;2022-09-09T08:20:41;97829.91;;;30.23;40.89
2785;BME280;57944;48.722;9.316;2022-09-09T08:23:14;97831.09;;;30.71;40.22
2785;BME280;57944;48.722;9.316;2022-09-09T08:25:44;97824.41;;;30.86;39.41
2785;BME280;57944;48.722;9.316;2022-09-09T08:28:16;97816.78;;;30.02;39.21
2785;BME280;57944;48.722;9.316;2022-09-09T08:30:46;97812.59;;;27.62;43.71
2785;BME280;57944;48.722;9.316;2022-09-09T08:33:16;97815.13;;;26.16;48.03
2785;BME280;57944;48.722;9.316;2022-09-09T08:35:50;97811.69;;;25.57;51.03
2785;BME280;57944;48.722;9.316;2022-09-09T08:38:23;97819.31;;;26.88;47.82
2785;BME280;57944;48.722;9.316;2022-09-09T08:41:10;97820.63;;;28.00;44.92
2785;BME280;57944;48.722;9.316;2022-09-09T08:43:50;97822.34;;;27.88;44.24
2785;BME280;57944;48.722;9.316;2022-09-09T08:46:27;97824.78;;;28.10;44.60
2785;BME280;57944;48.722;9.316;2022-09-09T08:49:19;97820.66;;;29.12;41.67
2785;BME280;57944;48.722;9.316;2022-09-09T08:51:56;97821.47;;;28.95;43.12
2785;BME280;57944;48.722;9.316;2022-09-09T08:54:34;97822.00;;;29.90;40.41
2785;BME280;57944;48.722;9.316;2022-09-09T08:57:23;97823.66;;;30.85;38.50
2785;BME280;57944;48.722;9.316;2022-09-09T08:59:56;97825.34;;;31.95;36.10
2785;BME280;57944;48.722;9.316;2022-09-09T09:02:39;97836.00;;;31.99;36.02
2785;BME280;57944;48.722;9.316;2022-09-09T09:05:23;97825.13;;;29.11;39.88
2785;BME280;57944;48.722;9.316;2022-09-09T09:08:08;97816.44;;;27.73;42.55
2785;BME280;57944;48.722;9.316;2022-09-09T09:10:49;97810.31;;;26.63;44.95
2785;BME280;57944;48.722;9.316;2022-09-09T09:13:33;97813.03;;;26.89;44.87
2785;BME280;57944;48.722;9.316;2022-09-09T09:16:23;97807.22;;;27.50;43.63
2785;BME280;57944;48.722;9.316;2022-09-09T09:18:55;97806.13;;;28.12;42.42
2785;BME280;57944;48.722;9.316;2022-09-09T09:21:36;97810.56;;;28.46;40.15
2785;BME280;57944;48.722;9.316;2022-09-09T09:24:18;97819.84;;;28.17;41.66
2785;BME280;57944;48.722;9.316;2022-09-09T09:26:53;97811.50;;;30.02;39.13
2785;BME280;57944;48.722;9.316;2022-09-09T09:29:25;97810.44;;;30.48;37.91
2785;BME280;57944;48.722;9.316;2022-09-09T09:32:02;97814.94;;;31.46;36.21
2785;BME280;57944;48.722;9.316;2022-09-09T09:34:33;97814.03;;;32.70;34.30
2785;BME280;57944;48.722;9.316;2022-09-09T09:37:15;97820.44;;;33.75;31.83
2785;BME280;57944;48.722;9.316;2022-09-09T09:39:47;97836.25;;;29.08;36.76
2785;BME280;57944;48.722;9.316;2022-09-09T09:42:36;97825.97;;;26.10;39.16
2785;BME280;57944;48.722;9.316;2022-09-09T09:45:16;97823.16;;;23.75;41.28
2785;BME280;57944;48.722;9.316;2022-09-09T09:47:59;97807.81;;;24.44;38.15
2785;BME280;57944;48.722;9.316;2022-09-09T09:50:46;97795.41;;;24.82;37.07
2785;BME280;57944;48.722;9.316;2022-09-09T09:53:22;97797.16;;;25.01;37.99
2785;BME280;57944;48.722;9.316;2022-09-09T09:55:57;97787.81;;;26.93;35.37
2785;BME280;57944;48.722;9.316;2022-09-09T09:58:33;97788.41;;;28.00;33.73
2785;BME280;57944;48.722;9.316;2022-09-09T10:01:21;97774.78;;;26.62;36.30
2785;BME280;57944;48.722;9.316;2022-09-09T10:03:53;97772.03;;;27.16;36.01
2785;BME280;57944;48.722;9.316;2022-09-09T10:06:34;97767.94;;;27.67;35.53
2785;BME280;57944;48.722;9.316;2022-09-09T10:09:23;97769.00;;;28.95;33.71
2785;BME280;57944;48.722;9.316;2022-09-09T10:12:04;97777.06;;;29.61;32.51
2785;BME280;57944;48.722;9.316;2022-09-09T10:14:49;97774.97;;;31.04;30.23
2785;BME280;57944;48.722;9.316;2022-09-09T10:17:34;97778.94;;;29.82;31.68
2785;BME280;57944;48.722;9.316;2022-09-09T10:20:29;97774.56;;;27.56;35.63
2785;BME280;57944;48.722;9.316;2022-09-09T10:23:17;97766.19;;;28.23;34.44
2785;BME280;57944;48.722;9.316;2022-09-09T10:26:10;97764.09;;;29.65;33.47
2785;BME280;57944;48.722;9.316;2022-09-09T10:29:15;97749.94;;;31.10;31.63
2785;BME280;57944;48.722;9.316;2022-09-09T10:32:03;97760.69;;;31.57;31.49
2785;BME280;57944;48.722;9.316;2022-09-09T10:34:54;97752.44;;;32.47;31.31
2785;BME280;57944;48.722;9.316;2022-09-09T10:37:43;97757.56;;;31.39;32.93
2785;BME280;57944;48.722;9.316;2022-09-09T10:40:28;97754.66;;;29.43;35.54
2785;BME280;57944;48.722;9.316;2022-09-09T10:43:13;97752.28;;;28.79;38.16
2785;BME280;57944;48.722;9.316;2022-09-09T10:46:02;97743.59;;;30.62;35.45
2785;BME280;57944;48.722;9.316;2022-09-09T10:48:59;97747.34;;;31.26;33.92
2785;BME280;57944;48.722;9.316;2022-09-09T10:51:40;97746.03;;;31.44;34.03
2785;BME280;57944;48.722;9.316;2022-09-09T10:54:36;97750.50;;;30.30;35.46
2785;BME280;57944;48.722;9.316;2022-09-09T10:57:26;97735.41;;;28.59;38.34
2785;BME280;57944;48.722;9.316;2022-09-09T11:00:04;97727.66;;;28.62;38.45
2785;BME280;57944;48.722;9.316;2022-09-09T11:02:36;97732.22;;;28.74;38.29
2785;BME280;57944;48.722;9.316;2022-09-09T11:05:19;97730.28;;;27.02;40.48
2785;BME280;57944;48.722;9.316;2022-09-09T11:07:59;97732.88;;;26.14;41.48
2785;BME280;57944;48.722;9.316;2022-09-09T11:10:41;97719.91;;;26.71;41.65
2785;BME280;57944;48.722;9.316;2022-09-09T11:13:20;97724.34;;;27.54;40.47
2785;BME280;57944;48.722;9.316;2022-09-09T11:16:00;97716.63;;;29.07;37.37
2785;BME280;57944;48.722;9.316;2022-09-09T11:18:36;97707.56;;;27.37;35.61
2785;BME280;57944;48.722;9.316;2022-09-09T11:21:23;97725.50;;;26.16;37.93
2785;BME280;57944;48.722;9.316;2022-09-09T11:24:02;97726.84;;;24.68;40.37
2785;BME280;57944;48.722;9.316;2022-09-09T11:26:43;97729.81;;;24.01;42.53
2785;BME280;57944;48.722;9.316;2022-09-09T11:36:02;97765.94;;;21.96;60.60
2785;BME280;57944;48.722;9.316;2022-09-09T11:38:46;97788.34;;;19.43;100.00
2785;BME280;57944;48.722;9.316;2022-09-09T11:41:20;97795.31;;;18.15;100.00
2785;BME280;57944;48.722;9.316;2022-09-09T11:43:52;97795.00;;;17.84;100.00
2785;BME280;57944;48.722;9.316;2022-09-09T11:46:34;97791.94;;;17.38;100.00
2785;BME280;57944;48.722;9.316;2022-09-09T11:49:26;97794.03;;;17.19;100.00
2785;BME280;57944;48.722;9.316;2022-09-09T11:51:58;97793.22;;;17.41;100.00
2785;BME280;57944;48.722;9.316;2022-09-09T11:54:33;97779.41;;;17.96;100.00
2785;BME280;57944;48.722;9.316;2022-09-09T11:57:26;97785.13;;;20.14;100.00
2785;BME280;57944;48.722;9.316;2022-09-09T12:00:00;97782.38;;;22.21;100.00
2785;BME280;57944;48.722;9.316;2022-09-09T12:02:48;97785.16;;;23.12;90.61
2785;BME280;57944;48.722;9.316;2022-09-09T12:05:19;97785.09;;;22.64;75.09
2785;BME280;57944;48.722;9.316;2022-09-09T12:07:56;97782.41;;;22.16;78.63
2785;BME280;57944;48.722;9.316;2022-09-09T12:10:31;97788.19;;;23.19;76.52
2785;BME280;57944;48.722;9.316;2022-09-09T12:13:17;97786.59;;;22.99;78.79
2785;BME280;57944;48.722;9.316;2022-09-09T12:15:49;97784.47;;;23.25;65.68
2785;BME280;57944;48.722;9.316;2022-09-09T12:18:25;97784.00;;;22.70;69.86
2785;BME280;57944;48.722;9.316;2022-09-09T12:21:05;97796.75;;;23.62;56.85
2785;BME280;57944;48.722;9.316;2022-09-09T12:23:45;97787.31;;;23.67;56.50
2785;BME280;57944;48.722;9.316;2022-09-09T12:26:31;97779.06;;;24.16;51.97
2785;BME280;57944;48.722;9.316;2022-09-09T12:29:22;97771.06;;;25.01;46.80
2785;BME280;57944;48.722;9.316;2022-09-09T12:32:02;97766.84;;;24.30;48.78
2785;BME280;57944;48.722;9.316;2022-09-09T12:34:39;97768.88;;;24.34;48.45
2785;BME280;57944;48.722;9.316;2022-09-09T12:37:21;97766.19;;;24.06;47.73
2785;BME280;57944;48.722;9.316;2022-09-09T12:39:56;97748.31;;;22.81;49.81
2785;BME280;57944;48.722;9.316;2022-09-09T12:42:30;97756.72;;;22.09;53.58
2785;BME280;57944;48.722;9.316;2022-09-09T12:45:18;97752.66;;;21.63;55.02
2785;BME280;57944;48.722;9.316;2022-09-09T12:47:52;97746.66;;;22.02;51.71
2785;BME280;57944;48.722;9.316;2022-09-09T12:50:30;97738.63;;;22.04;55.28
2785;BME280;57944;48.722;9.316;2022-09-09T12:53:06;97737.53;;;22.10;52.49
2785;BME280;57944;48.722;9.316;2022-09-09T12:55:48;97741.81;;;22.30;51.27
2785;BME280;57944;48.722;9.316;2022-09-09T12:58:21;97750.34;;;22.60;50.85
2785;BME280;57944;48.722;9.316;2022-09-09T13:00:54;97742.22;;;22.90;50.18
2785;BME280;57944;48.722;9.316;2022-09-09T13:03:25;97742.94;;;22.72;51.91
2785;BME280;57944;48.722;9.316;2022-09-09T13:06:10;97736.69;;;22.15;53.28
2785;BME280;57944;48.722;9.316;2022-09-09T13:08:41;97739.72;;;22.56;53.85
2785;BME280;57944;48.722;9.316;2022-09-09T13:11:15;97742.19;;;22.71;54.01
2785;BME280;57944;48.722;9.316;2022-09-09T13:13:56;97735.69;;;22.45;51.94
2785;BME280;57944;48.722;9.316;2022-09-09T13:16:29;97736.94;;;22.47;53.61
2785;BME280;57944;48.722;9.316;2022-09-09T13:19:10;97733.03;;;23.60;49.46
2785;BME280;57944;48.722;9.316;2022-09-09T13:21:43;97723.31;;;23.84;47.13
2785;BME280;57944;48.722;9.316;2022-09-09T13:24:31;97729.09;;;23.44;47.74
2785;BME280;57944;48.722;9.316;2022-09-09T13:27:05;97729.31;;;23.66;48.00
2785;BME280;57944;48.722;9.316;2022-09-09T13:29:55;97729.00;;;23.86;45.48
2785;BME280;57944;48.722;9.316;2022-09-09T13:32:27;97727.28;;;24.28;44.15
2785;BME280;57944;48.722;9.316;2022-09-09T13:35:00;97722.13;;;24.56;44.13
2785;BME280;57944;48.722;9.316;2022-09-09T13:37:35;97718.94;;;25.14;42.50
2785;BME280;57944;48.722;9.316;2022-09-09T13:40:17;97717.63;;;26.38;40.26
2785;BME280;57944;48.722;9.316;2022-09-09T13:42:55;97719.50;;;26.86;38.62
2785;BME280;57944;48.722;9.316;2022-09-09T13:45:28;97717.56;;;25.53;40.13
2785;BME280;57944;48.722;9.316;2022-09-09T13:48:10;97725.16;;;26.40;39.44
2785;BME280;57944;48.722;9.316;2022-09-09T13:50:40;97719.00;;;25.59;41.15
2785;BME280;57944;48.722;9.316;2022-09-09T13:53:11;97713.38;;;24.80;43.41
2785;BME280;57944;48.722;9.316;2022-09-09T13:55:41;97711.59;;;26.69;39.83
2785;BME280;57944;48.722;9.316;2022-09-09T13:58:17;97717.09;;;25.96;41.45
2785;BME280;57944;48.722;9.316;2022-09-09T14:00:51;97720.06;;;25.36;43.00
2785;BME280;57944;48.722;9.316;2022-09-09T14:03:21;97718.28;;;24.07;45.81